Time;durP1;ratioP1;P1;durP2;ratioP2;P2;SDS_P1;SDS_P2;PMS_P1;PMS_P2;Temp;Humidity;BMP_temperature;BMP_pressure;BME280_temperature;BME280_humidity;BME280_pressure;Samples;Min_cycle;Max_cycle;Signal;HPM_P1;HPM_P2
2022/12/09 00:02:23;;;;;;;232.93;36.83;;;3.20;99.90;;;2.54;94.14;100545.34;5113773;28;20044;-63
2022/12/09 00:04:52;;;;;;;189.80;36.28;;;2.70;99.90;;;2.89;95.14;100555.66;5113784;28;20065;-63
2022/12/09 00:07:20;;;;;;;180.77;39.67;;;2.80;99.90;;;2.84;95.86;100544.25;5113669;28;20042;-62
2022/12/09 00:09:48;;;;;;;118.27;34.13;;;2.80;99.90;;;3.01;96.13;100542.88;5095681;28;20051;-63
2022/12/09 00:12:16;;;;;;;60.17;33.03;;;2.90;99.90;;;3.33;96.18;100547.03;5113657;28;20040;-63
2022/12/09 00:14:45;;;;;;;69.40;33.97;;;3.20;99.90;;;3.50;95.81;100549.06;5113864;28;20082;-63
2022/12/09 00:17:13;;;;;;;61.13;34.73;;;3.40;99.90;;;3.30;95.43;100487.72;5113583;28;20496;-63
2022/12/09 00:19:43;;;;;;;107.37;35.67;;;3.50;99.90;;;3.73;95.03;100546.00;5113690;28;20144;-62
2022/12/09 00:22:11;;;;;;;63.20;36.20;;;3.70;99.90;;;3.63;94.61;100540.63;5113503;28;20039;-63
2022/12/09 00:24:40;;;;;;;98.90;34.03;;;3.60;99.90;;;3.62;94.33;100544.06;5113474;28;20039;-63
2022/12/09 00:27:08;;;;;;;113.40;35.30;;;3.70;99.90;;;2.85;94.35;100460.72;5095488;28;20504;-63
2022/12/09 00:29:37;;;;;;;415.03;44.10;;;3.50;99.90;;;3.18;94.87;100544.09;5095373;28;20489;-63
2022/12/09 00:32:05;;;;;;;210.47;36.57;;;3.30;99.90;;;2.80;95.37;100543.31;5113542;28;20051;-63
2022/12/09 00:34:34;;;;;;;512.53;46.40;;;2.90;99.90;;;2.46;96.39;100510.38;5095621;28;20043;-63
2022/12/09 00:37:04;;;;;;;165.83;37.13;;;2.70;99.90;;;2.85;97.46;100549.50;5113357;28;20039;-63
2022/12/09 00:39:33;;;;;;;61.22;33.78;;;2.80;99.90;;;3.14;97.61;100547.47;5095054;28;20048;-62
2022/12/09 00:42:01;;;;;;;221.73;36.90;;;3.00;99.90;;;2.44;97.04;100508.59;5113550;28;20455;-63
2022/12/09 00:44:30;;;;;;;308.07;40.30;;;2.70;99.90;;;2.51;97.70;100552.25;5113548;28;20047;-63
2022/12/09 00:46:58;;;;;;;104.57;35.60;;;2.60;99.90;;;2.54;98.88;100545.34;5095258;28;20051;-63
2022/12/09 00:49:26;;;;;;;74.60;32.50;;;2.50;99.90;;;2.89;99.08;100556.56;5113558;28;20048;-63
2022/12/09 00:51:54;;;;;;;184.27;35.07;;;2.70;99.90;;;2.87;98.48;100565.19;5113534;28;20067;-64
2022/12/09 00:54:26;;;;;;;86.03;35.47;;;2.90;99.90;;;2.96;98.49;100563.66;5113396;28;20065;-63
2022/12/09 00:56:55;;;;;;;264.50;41.37;;;2.90;99.90;;;2.88;97.83;100569.59;5114916;28;20047;-63
2022/12/09 00:59:24;;;;;;;168.20;38.47;;;2.90;99.90;;;2.59;98.40;100571.56;5117165;28;20031;-63
2022/12/09 01:01:52;;;;;;;243.10;41.60;;;2.60;99.90;;;2.35;99.34;100577.09;5117172;28;20560;-63
2022/12/09 01:04:23;;;;;;;377.03;41.50;;;2.40;99.90;;;1.94;99.51;100561.28;5099145;28;20047;-65
2022/12/09 01:06:52;;;;;;;;;;;2.10;99.90;;;1.99;100.00;100557.97;5099680;28;20047;-64
2022/12/09 01:09:20;;;;;;;70.27;34.60;;;2.00;99.90;;;2.41;100.00;100550.25;5117100;28;19920;-63
2022/12/09 01:11:50;;;;;;;108.20;35.13;;;2.30;99.90;;;2.80;100.00;100556.38;5098946;28;20075;-62
2022/12/09 01:14:18;;;;;;;105.63;37.92;;;2.60;99.90;;;2.94;100.00;100552.31;5099170;28;20048;-63
2022/12/09 01:16:47;;;;;;;311.87;37.87;;;2.80;99.90;;;2.70;99.52;100557.00;5116949;28;20542;-63
2022/12/09 01:19:16;;;;;;;60.95;29.33;;;2.80;99.90;;;2.54;99.49;100555.78;5098787;28;20089;-63
2022/12/09 01:21:45;;;;;;;76.57;30.43;;;2.50;99.90;;;2.65;99.68;100556.91;5117182;28;20036;-63
2022/12/09 01:24:14;;;;;;;370.90;34.73;;;2.60;99.90;;;2.33;99.07;100554.41;5116834;28;20043;-63
2022/12/09 01:26:42;;;;;;;364.47;33.43;;;2.50;99.90;;;1.91;99.79;100556.88;5117014;28;20040;-63
2022/12/09 01:29:12;;;;;;;331.30;32.13;;;2.10;99.90;;;1.44;100.00;100562.59;5098419;28;20035;-63
2022/12/09 01:31:41;;;;;;;353.73;31.05;;;1.60;99.90;;;1.40;100.00;100568.56;5098563;28;20139;-63
2022/12/09 01:34:10;;;;;;;417.63;33.10;;;1.40;99.90;;;1.09;100.00;100569.44;5116850;28;20078;-63
2022/12/09 01:36:38;;;;;;;344.63;34.20;;;1.20;99.90;;;1.30;100.00;100562.22;5098499;28;20036;-63
2022/12/09 01:39:07;;;;;;;252.20;31.37;;;1.30;99.90;;;1.36;100.00;100558.88;5116731;28;20457;-63
2022/12/09 01:41:35;;;;;;;285.57;33.00;;;1.40;99.90;;;1.28;100.00;100566.50;5116677;28;20071;-63
2022/12/09 01:44:19;;;;;;;193.93;29.17;;;1.30;99.90;;;1.44;100.00;100557.38;5098419;28;20048;-63
2022/12/09 01:46:48;;;;;;;169.80;26.83;;;1.40;99.90;;;1.21;100.00;100517.69;5116698;28;20047;-63
2022/12/09 01:49:22;;;;;;;212.25;26.88;;;1.50;99.90;;;1.25;100.00;100531.69;5116623;28;20131;-63
2022/12/09 01:52:01;;;;;;;272.77;26.90;;;1.40;99.90;;;1.40;100.00;100561.63;5116300;28;20060;-63
2022/12/09 01:54:32;;;;;;;276.23;25.38;;;1.40;99.90;;;1.31;100.00;100565.72;5098249;28;20439;-63
2022/12/09 01:57:00;;;;;;;202.43;27.17;;;1.40;99.90;;;1.41;100.00;100567.72;5098049;28;20047;-63
2022/12/09 01:59:31;;;;;;;233.23;27.70;;;1.40;99.90;;;1.31;100.00;100550.97;5098137;28;20047;-63
2022/12/09 02:02:01;;;;;;;;;;;1.40;99.90;;;1.61;100.00;100562.19;5098488;28;20428;-63
2022/12/09 02:04:34;;;;;;;57.47;22.70;;;1.50;99.90;;;1.91;100.00;100556.00;5116296;28;19927;-63
2022/12/09 02:07:09;;;;;;;121.33;22.83;;;1.80;99.90;;;2.12;100.00;100567.84;5115933;28;20040;-63
2022/12/09 02:09:38;;;;;;;187.40;27.60;;;2.00;99.90;;;1.62;100.00;100557.88;5097698;28;20480;-64
2022/12/09 02:12:13;;;;;;;331.90;29.33;;;1.70;99.90;;;1.66;100.00;100523.22;5097903;28;20089;-63
2022/12/09 02:14:50;;;;;;;126.63;24.73;;;1.80;99.90;;;1.84;100.00;100554.94;5097967;28;20070;-63
2022/12/09 02:17:27;;;;;;;322.63;31.37;;;1.80;99.90;;;1.83;100.00;100555.81;5097762;28;20400;-63
2022/12/09 02:20:06;;;;;;;309.67;30.07;;;1.80;99.90;;;1.81;100.00;100545.34;5097739;28;20139;-63
2022/12/09 02:22:42;;;;;;;154.47;28.13;;;1.80;99.90;;;1.79;100.00;100543.53;5097677;28;20039;-63
2022/12/09 02:25:23;;;;;;;104.43;24.03;;;1.70;99.90;;;1.82;100.00;100536.66;5097719;28;20056;-63
2022/12/09 02:28:15;;;;;;;184.27;26.57;;;1.80;99.90;;;1.92;100.00;100537.78;5097597;28;20086;-63
2022/12/09 02:30:55;;;;;;;156.53;27.40;;;1.90;99.90;;;1.84;100.00;100529.78;5114396;28;20040;-63
2022/12/09 02:33:40;;;;;;;256.70;31.00;;;1.80;99.90;;;-0.16;100.00;100257.22;5097159;28;20079;-63
2022/12/09 02:36:17;;;;;;;135.50;28.43;;;1.90;99.90;;;2.16;100.00;100538.38;5097447;28;20400;-63
2022/12/09 02:38:51;;;;;;;217.50;33.37;;;2.10;99.90;;;2.10;100.00;100548.66;5097071;28;20051;-63
2022/12/09 02:41:24;;;;;;;124.00;30.87;;;2.10;99.90;;;1.98;100.00;100543.16;5097297;28;20097;-63
2022/12/09 02:44:00;;;;;;;158.03;29.67;;;1.90;99.90;;;1.86;100.00;100541.97;5115284;28;20496;-63
2022/12/09 02:46:34;;;;;;;154.73;31.67;;;1.80;99.90;;;1.90;100.00;100551.66;5097278;28;20051;-64
2022/12/09 02:49:05;;;;;;;350.90;36.27;;;1.80;99.90;;;1.62;100.00;100547.44;5097007;28;20485;-63
2022/12/09 02:51:40;;;;;;;219.13;31.93;;;1.70;99.90;;;1.52;100.00;100550.66;5097008;28;20082;-63
2022/12/09 02:54:15;;;;;;;184.03;29.70;;;1.50;99.90;;;1.62;100.00;100540.53;5097079;28;20044;-64
2022/12/09 02:56:51;;;;;;;104.73;29.37;;;1.60;99.90;;;1.63;100.00;100549.19;5097057;28;20096;-63
2022/12/09 02:59:21;;;;;;;152.93;30.70;;;1.60;99.90;;;0.95;100.00;100434.53;5096876;28;20069;-63
2022/12/09 03:02:00;;;;;;;84.40;25.40;;;1.50;99.90;;;1.50;100.00;100515.84;5115179;28;20357;-63
2022/12/09 03:04:31;;;;;;;147.53;28.60;;;1.60;99.90;;;1.68;100.00;100545.00;5114921;28;20054;-63
2022/12/09 03:07:15;;;;;;;107.73;27.97;;;1.60;99.90;;;1.64;100.00;100537.94;5114813;28;20044;-63
2022/12/09 03:09:48;;;;;;;60.60;27.33;;;1.60;99.90;;;0.25;100.00;100273.06;5114735;28;20550;-63
2022/12/09 03:12:19;;;;;;;66.87;26.20;;;1.70;99.90;;;1.33;100.00;100512.81;5115082;28;20039;-63
2022/12/09 03:14:53;;;;;;;51.77;26.00;;;1.50;99.90;;;1.55;100.00;100498.59;5114688;28;20067;-63
2022/12/09 03:17:29;;;;;;;72.40;28.50;;;1.60;99.90;;;1.93;100.00;100539.56;5114885;28;20043;-63
2022/12/09 03:20:01;;;;;;;87.60;28.23;;;1.80;99.90;;;1.89;100.00;100540.31;5113782;28;20052;-63
2022/12/09 03:22:35;;;;;;;110.90;27.97;;;1.80;99.90;;;1.83;100.00;100532.34;5114825;28;20039;-63
2022/12/09 03:25:09;;;;;;;61.80;27.83;;;1.80;99.90;;;1.89;100.00;100535.09;5114743;28;20058;-63
2022/12/09 03:27:46;;;;;;;103.23;30.27;;;1.70;99.90;;;1.94;100.00;100512.63;5114486;28;20049;-63
2022/12/09 03:30:16;;;;;;;69.17;29.13;;;2.00;99.90;;;1.87;100.00;100500.28;5114318;28;20055;-63
2022/12/09 03:32:46;;;;;;;61.90;28.60;;;2.00;99.90;;;2.09;100.00;100520.81;5114145;28;20055;-64
2022/12/09 03:35:18;;;;;;;;;;;2.00;99.90;;;2.12;100.00;100473.06;5114697;28;20093;-64
2022/12/09 03:37:50;;;;;;;61.97;28.73;;;2.30;99.90;;;2.70;100.00;100523.97;5114299;28;20010;-63
2022/12/09 03:40:25;;;;;;;64.67;29.90;;;2.50;99.90;;;2.23;100.00;100414.19;5114408;28;20397;-63
2022/12/09 03:43:00;;;;;;;67.10;30.03;;;2.70;99.90;;;2.73;100.00;100513.56;5114149;28;20043;-63
2022/12/09 03:45:29;;;;;;;82.30;31.47;;;2.70;99.90;;;2.83;100.00;100514.66;5114134;28;20073;-63
2022/12/09 03:47:58;;;;;;;78.43;31.90;;;2.80;99.90;;;2.53;100.00;100507.06;5114030;28;20088;-63
2022/12/09 03:50:34;;;;;;;80.63;31.53;;;2.60;99.90;;;2.15;100.00;100523.56;5113885;28;20104;-63
2022/12/09 03:53:09;;;;;;;272.67;36.67;;;2.30;99.90;;;2.11;100.00;100519.13;5114022;28;20038;-64
2022/12/09 03:55:47;;;;;;;133.13;34.93;;;2.10;99.90;;;1.92;100.00;100522.13;5113928;28;20063;-63
2022/12/09 03:58:17;;;;;;;129.73;35.30;;;1.90;99.90;;;1.99;100.00;100502.31;5113951;28;20126;-63
2022/12/09 04:00:47;;;;;;;133.93;34.83;;;2.00;99.90;;;1.52;100.00;100475.09;5114058;28;20447;-63
2022/12/09 04:03:18;;;;;;;135.82;33.33;;;1.80;99.90;;;1.54;100.00;100489.03;5113824;28;20051;-63
2022/12/09 04:05:47;;;;;;;82.27;33.17;;;1.70;99.90;;;1.68;100.00;100511.97;5113996;28;20532;-63
2022/12/09 04:08:16;;;;;;;158.83;35.77;;;1.60;99.90;;;1.49;100.00;100514.97;5114014;28;20035;-63
2022/12/09 04:10:45;;;;;;;122.38;36.78;;;1.50;99.90;;;1.39;100.00;100504.28;5113893;28;20127;-63
2022/12/09 04:13:14;;;;;;;88.80;34.33;;;1.40;99.90;;;1.24;100.00;100502.13;5113670;28;20097;-63
2022/12/09 04:15:42;;;;;;;143.17;37.10;;;1.30;99.90;;;1.08;100.00;100486.06;5095503;28;20043;-63
2022/12/09 04:18:11;;;;;;;74.30;36.10;;;1.30;99.90;;;1.26;100.00;100510.00;5113561;28;20104;-63
2022/12/09 04:20:39;;;;;;;89.37;35.10;;;1.20;99.90;;;1.35;100.00;100507.66;5113542;28;20549;-63
2022/12/09 04:23:08;;;;;;;78.13;37.13;;;1.30;99.90;;;1.42;100.00;100509.56;5113826;28;20027;-63
2022/12/09 04:25:38;;;;;;;84.63;38.37;;;1.30;99.90;;;1.56;100.00;100505.59;5114065;28;20052;-63
2022/12/09 04:28:07;;;;;;;71.67;36.07;;;1.50;99.90;;;1.67;100.00;100515.44;5113797;28;20044;-63
2022/12/09 04:30:36;;;;;;;74.93;37.53;;;1.60;99.90;;;1.66;100.00;100515.41;5113208;28;20059;-63
2022/12/09 04:33:04;;;;;;;85.53;36.20;;;1.60;99.90;;;1.39;100.00;100484.34;5095224;28;20051;-64
2022/12/09 04:35:33;;;;;;;85.33;35.53;;;1.50;99.90;;;1.27;100.00;100503.94;5113924;28;20163;-62
2022/12/09 04:38:01;;;;;;;73.70;35.30;;;1.30;99.90;;;1.30;100.00;100472.75;5113565;28;20413;-63
2022/12/09 04:40:29;;;;;;;71.30;35.80;;;1.40;99.90;;;1.52;100.00;100455.13;5095337;28;20058;-63
2022/12/09 04:42:59;;;;;;;73.07;35.23;;;1.70;99.90;;;1.56;100.00;100493.44;5113345;28;20047;-62
2022/12/09 04:45:28;;;;;;;74.60;34.13;;;1.60;99.90;;;1.30;100.00;100423.28;5113313;28;20044;-62
2022/12/09 04:47:57;;;;;;;82.43;35.53;;;1.70;99.90;;;1.51;100.00;100463.78;5113260;28;20036;-62
2022/12/09 04:50:27;;;;;;;72.10;34.72;;;1.70;99.90;;;1.81;100.00;100506.25;5113607;28;20050;-62
2022/12/09 04:52:55;;;;;;;75.90;35.47;;;1.80;99.90;;;1.70;100.00;100509.44;5113311;28;20047;-62
2022/12/09 04:55:23;;;;;;;73.53;35.60;;;1.70;99.90;;;1.76;100.00;100497.41;5113233;28;20036;-62
2022/12/09 04:57:52;;;;;;;75.27;35.43;;;1.70;99.90;;;1.93;100.00;100513.50;5113139;28;20054;-62
2022/12/09 05:00:22;;;;;;;71.43;34.23;;;1.80;99.90;;;1.88;100.00;100511.63;5113208;28;20045;-62
2022/12/09 05:02:51;;;;;;;71.70;34.55;;;1.80;99.90;;;1.51;100.00;100508.06;5113521;28;20143;-62
2022/12/09 05:05:19;;;;;;;72.17;34.93;;;1.60;99.90;;;1.58;100.00;100509.13;5095143;28;20047;-62
2022/12/09 05:07:48;;;;;;;89.43;36.83;;;1.50;99.90;;;1.80;100.00;100508.81;5113163;28;20044;-62
2022/12/09 05:10:18;;;;;;;73.67;35.27;;;1.70;99.90;;;1.90;100.00;100507.31;5113055;28;20039;-63
2022/12/09 05:12:46;;;;;;;81.80;36.33;;;1.80;99.90;;;1.93;100.00;100496.94;5113253;28;20048;-62
2022/12/09 05:15:15;;;;;;;72.53;33.37;;;1.90;99.90;;;2.16;100.00;100516.63;5113278;28;20040;-62
2022/12/09 05:17:45;;;;;;;73.00;34.03;;;2.10;99.90;;;2.26;100.00;100510.78;5095086;28;20040;-62
2022/12/09 05:20:14;;;;;;;75.03;34.83;;;2.10;99.90;;;2.18;100.00;100505.38;5113392;28;20051;-62
2022/12/09 05:22:43;;;;;;;79.33;35.53;;;2.10;99.90;;;1.66;100.00;100499.78;5113281;28;20040;-63
2022/12/09 05:25:11;;;;;;;70.27;35.20;;;1.70;99.90;;;1.62;100.00;100497.94;5113245;28;20044;-63
2022/12/09 05:27:40;;;;;;;71.03;33.43;;;1.60;99.90;;;1.63;100.00;100497.97;5112910;28;20063;-63
2022/12/09 05:30:10;;;;;;;71.60;33.47;;;1.60;99.90;;;1.49;100.00;100490.66;5095048;28;20043;-63
2022/12/09 05:32:39;;;;;;;;;;;1.40;99.90;;;1.63;100.00;100497.97;5113573;28;20139;-63
2022/12/09 05:35:09;;;;;;;74.43;35.50;;;1.50;99.90;;;1.72;100.00;100484.28;5112863;28;19924;-62
2022/12/09 05:37:38;;;;;;;72.03;34.27;;;1.70;99.90;;;2.06;100.00;100504.22;5112935;28;20047;-63
2022/12/09 05:40:09;;;;;;;77.77;35.93;;;1.90;99.90;;;2.14;100.00;100497.44;5112882;28;20503;-62
2022/12/09 05:42:38;;;;;;;67.20;33.83;;;2.00;99.90;;;1.84;100.00;100489.78;5113853;28;20050;-63
2022/12/09 05:45:10;;;;;;;75.70;35.97;;;1.90;99.90;;;1.59;100.00;100493.50;5116824;28;20067;-62
2022/12/09 05:47:39;;;;;;;;;;;1.60;99.90;;;1.56;100.00;100497.78;5098925;28;20067;-64
2022/12/09 05:50:10;;;;;;;72.90;35.80;;;1.50;99.90;;;1.72;100.00;100487.75;5116293;28;19972;-62
2022/12/09 05:52:39;;;;;;;68.43;33.60;;;1.60;99.90;;;1.93;100.00;100500.44;5098298;28;20100;-62
2022/12/09 05:55:10;;;;;;;79.87;37.13;;;1.80;99.90;;;1.67;100.00;100485.88;5116795;28;20054;-62
2022/12/09 05:57:39;;;;;;;74.07;38.07;;;1.70;99.90;;;1.56;100.00;100487.34;5116547;28;20051;-62
2022/12/09 06:00:09;;;;;;;70.50;37.60;;;1.60;99.90;;;1.86;100.00;100495.91;5116151;28;20046;-63
2022/12/09 06:02:41;;;;;;;76.20;37.90;;;1.70;99.90;;;2.10;100.00;100499.13;5116145;28;20046;-64
2022/12/09 06:05:11;;;;;;;78.77;37.07;;;1.90;99.90;;;1.91;100.00;100447.38;5116006;28;20584;-63
2022/12/09 06:07:40;;;;;;;72.88;37.28;;;2.10;99.90;;;2.33;100.00;100494.41;5116057;28;20054;-63
2022/12/09 06:10:10;;;;;;;74.33;37.93;;;2.20;99.90;;;1.58;100.00;100417.91;5116262;28;20063;-64
2022/12/09 06:12:39;;;;;;;75.57;38.10;;;2.10;99.90;;;2.17;100.00;100498.41;5116154;28;20036;-64
2022/12/09 06:15:08;;;;;;;70.50;37.17;;;2.00;99.90;;;2.23;100.00;100503.75;5115849;28;20564;-64
2022/12/09 06:17:40;;;;;;;74.50;37.63;;;2.10;99.90;;;2.41;100.00;100483.31;5115799;28;20489;-64
2022/12/09 06:20:11;;;;;;;71.77;36.97;;;2.30;99.90;;;2.80;100.00;100488.47;5116013;28;20036;-64
2022/12/09 06:22:40;;;;;;;71.13;37.27;;;2.60;99.90;;;2.94;100.00;100484.44;5116321;28;20091;-64
2022/12/09 06:25:09;;;;;;;68.17;36.77;;;2.80;99.90;;;3.21;100.00;100504.97;5115726;28;20073;-64
2022/12/09 06:27:38;;;;;;;72.80;37.80;;;3.00;99.90;;;3.33;100.00;100499.97;5115849;28;20073;-63
2022/12/09 06:30:08;;;;;;;69.70;36.83;;;3.20;99.90;;;3.47;100.00;100501.09;5115649;28;20274;-63
2022/12/09 06:32:37;;;;;;;65.65;35.35;;;3.40;99.90;;;3.54;99.51;100502.97;5115758;28;20051;-63
2022/12/09 06:35:07;;;;;;;66.33;35.70;;;3.50;99.90;;;3.58;98.54;100495.19;5097493;28;20055;-64
2022/12/09 06:37:37;;;;;;;71.10;37.03;;;3.50;99.90;;;3.65;98.21;100494.47;5115512;28;20059;-64
2022/12/09 06:40:08;;;;;;;65.80;37.72;;;3.60;99.90;;;3.66;96.80;100503.16;5097539;28;20051;-63
2022/12/09 06:42:36;;;;;;;71.22;37.53;;;3.60;99.90;;;3.68;96.22;100498.84;5115695;28;20048;-63
2022/12/09 06:45:06;;;;;;;64.60;35.90;;;3.60;99.90;;;3.29;95.16;100521.69;5115161;28;20123;-64
2022/12/09 06:47:35;;;;;;;69.13;36.92;;;3.30;99.90;;;3.21;95.88;100495.41;5097100;28;20052;-64
2022/12/09 06:50:04;;;;;;;65.17;35.20;;;3.10;99.90;;;3.33;96.21;100506.06;5115142;28;20412;-65
2022/12/09 06:52:37;;;;;;;66.63;36.43;;;3.10;99.90;;;3.44;95.76;100501.03;5097033;28;20053;-64
2022/12/09 06:55:09;;;;;;;69.57;38.20;;;3.20;99.90;;;3.43;95.53;100513.22;5095892;28;20131;-64
2022/12/09 06:57:38;;;;;;;72.27;37.87;;;3.30;99.90;;;3.50;95.23;100503.78;5115060;28;20054;-63
2022/12/09 07:00:09;;;;;;;64.27;35.07;;;3.30;99.90;;;3.56;95.27;100491.66;5114882;28;20043;-64
2022/12/09 07:02:38;;;;;;;;;;;3.40;99.90;;;3.63;94.68;100503.13;5115993;28;20374;-63
2022/12/09 07:05:08;;;;;;;69.73;38.53;;;3.50;99.90;;;3.62;94.73;100507.47;5114852;28;19962;-63
2022/12/09 07:07:38;;;;;;;73.75;37.25;;;3.50;99.90;;;3.70;94.12;100504.97;5114878;28;20130;-64
2022/12/09 07:10:09;;;;;;;;;;;3.60;99.90;;;3.46;93.84;100479.31;5115248;28;20043;-64
2022/12/09 07:12:37;;;;;;;66.97;36.53;;;3.50;99.90;;;3.22;93.02;100496.25;5114696;28;20383;-64
2022/12/09 07:15:08;;;;;;;69.43;36.23;;;3.20;99.90;;;3.36;93.92;100497.41;5096947;28;20047;-64
2022/12/09 07:17:37;;;;;;;67.23;37.53;;;3.30;99.90;;;3.45;93.71;100497.56;5114680;28;20546;-64
2022/12/09 07:20:08;;;;;;;63.97;34.57;;;3.30;99.90;;;3.53;93.47;100498.59;5114823;28;20051;-63
2022/12/09 07:22:38;;;;;;;63.43;35.37;;;3.40;99.90;;;3.46;93.39;100494.13;5114840;28;20397;-65
2022/12/09 07:25:08;;;;;;;71.57;37.33;;;3.40;99.90;;;3.52;93.17;100502.06;5096569;28;20138;-64
2022/12/09 07:27:38;;;;;;;66.75;36.80;;;3.40;99.90;;;3.46;92.98;100504.56;5114755;28;20078;-64
2022/12/09 07:30:08;;;;;;;61.43;34.77;;;3.40;99.90;;;3.48;93.11;100503.72;5114564;28;20040;-64
2022/12/09 07:32:36;;;;;;;64.90;35.20;;;3.40;99.90;;;3.53;92.49;100503.81;5114693;28;20097;-63
2022/12/09 07:35:06;;;;;;;63.30;34.50;;;3.50;99.90;;;3.47;92.29;100501.09;5114042;28;20042;-64
2022/12/09 07:37:36;;;;;;;67.05;36.55;;;3.50;99.90;;;3.41;91.87;100507.09;5114366;28;20144;-63
2022/12/09 07:40:08;;;;;;;68.87;38.23;;;3.40;99.90;;;3.46;92.30;100499.34;5114167;28;20035;-63
2022/12/09 07:42:37;;;;;;;68.67;37.77;;;3.50;99.90;;;3.52;92.31;100510.75;5114765;28;20047;-62
2022/12/09 07:45:07;;;;;;;69.33;38.13;;;3.50;99.90;;;3.48;92.08;100511.56;5114368;28;20052;-63
2022/12/09 07:47:36;;;;;;;65.47;37.73;;;3.50;99.90;;;3.49;92.07;100512.44;5114056;28;20040;-64
2022/12/09 07:50:07;;;;;;;63.13;36.73;;;3.50;99.90;;;3.12;92.07;100440.34;5114230;28;20420;-63
2022/12/09 07:52:36;;;;;;;64.57;36.63;;;3.40;99.90;;;3.58;91.78;100516.09;5095936;28;20039;-64
2022/12/09 07:55:08;;;;;;;65.27;36.67;;;3.50;99.90;;;3.66;92.09;100513.63;5113887;28;20043;-64
2022/12/09 07:57:38;;;;;;;63.27;35.77;;;3.60;99.90;;;3.73;91.84;100514.63;5095980;28;20043;-64
2022/12/09 08:00:08;;;;;;;61.10;33.93;;;3.60;99.90;;;3.78;91.72;100512.94;5113857;28;20122;-66
2022/12/09 08:02:40;;;;;;;56.87;32.77;;;3.70;99.90;;;3.89;91.50;100517.50;5113568;28;20075;-62
2022/12/09 08:05:09;;;;;;;64.00;36.03;;;3.80;99.90;;;3.93;91.35;100515.84;5113220;28;20047;-63
2022/12/09 08:07:39;;;;;;;68.00;36.72;;;3.80;99.90;;;3.35;90.84;100423.34;5113716;28;20455;-62
2022/12/09 08:10:13;;;;;;;76.10;39.43;;;3.80;99.90;;;3.76;90.70;100481.56;5113834;28;20039;-61
2022/12/09 08:12:42;;;;;;;77.65;37.70;;;3.80;99.90;;;3.32;90.83;100407.63;5113503;28;20044;-61
2022/12/09 08:15:11;;;;;;;71.10;36.50;;;3.90;99.90;;;4.01;90.87;100515.09;5113343;28;20122;-64
2022/12/09 08:17:40;;;;;;;70.75;37.33;;;3.90;99.90;;;3.84;90.36;100472.09;5113377;28;20082;-64
2022/12/09 08:20:10;;;;;;;70.70;36.73;;;4.00;99.90;;;4.15;90.55;100515.31;5113625;28;20043;-62
2022/12/09 08:22:39;;;;;;;;;;;4.10;99.90;;;4.19;90.08;100511.88;5095823;28;20074;-63
2022/12/09 08:25:09;;;;;;;67.97;37.23;;;4.10;99.90;;;3.95;89.77;100495.81;5113554;28;20400;-63
2022/12/09 08:27:40;;;;;;;79.93;40.10;;;4.20;99.90;;;4.21;89.74;100510.19;5113595;28;20043;-63
2022/12/09 08:30:10;;;;;;;70.65;37.67;;;4.10;99.90;;;4.17;89.67;100517.09;5114113;28;20039;-64
2022/12/09 08:32:39;;;;;;;;;;;4.10;99.90;;;4.15;89.50;100516.19;5114031;28;20089;-65
2022/12/09 08:35:13;;;;;;;66.43;36.67;;;4.10;99.90;;;4.14;89.44;100506.56;5113473;28;19941;-65
2022/12/09 08:37:42;;;;;;;70.57;38.73;;;4.10;99.90;;;4.25;89.31;100514.59;5113508;28;20068;-65
2022/12/09 08:40:12;;;;;;;74.53;39.30;;;4.10;99.90;;;4.24;89.43;100516.31;5113696;28;20193;-64
2022/12/09 08:42:43;;;;;;;78.57;41.27;;;4.10;99.90;;;4.23;89.42;100514.59;5113483;28;20043;-63
2022/12/09 08:45:12;;;;;;;78.53;41.03;;;4.20;99.90;;;4.30;89.09;100513.81;5113419;28;20039;-63
2022/12/09 08:47:41;;;;;;;71.63;39.33;;;4.20;99.90;;;4.33;89.15;100523.47;5113369;28;20105;-63
2022/12/09 08:50:10;;;;;;;72.63;40.40;;;4.20;99.90;;;4.29;89.33;100525.16;5113255;28;20492;-65
2022/12/09 08:52:41;;;;;;;77.50;40.58;;;4.20;99.90;;;4.09;89.39;100489.94;5113261;28;20127;-64
2022/12/09 08:55:10;;;;;;;76.88;39.78;;;4.20;99.90;;;4.31;89.53;100525.16;5113211;28;20500;-65
2022/12/09 08:57:39;;;;;;;78.17;40.53;;;4.20;99.90;;;4.36;89.36;100527.00;5113348;28;20378;-66
2022/12/09 09:00:10;;;;;;;79.33;41.07;;;4.30;99.90;;;4.41;89.24;100525.31;5113168;28;20047;-65
2022/12/09 09:02:40;;;;;;;71.90;39.83;;;4.30;99.90;;;4.31;89.40;100509.47;5113836;28;20036;-65
2022/12/09 09:05:09;;;;;;;73.37;41.23;;;4.40;99.90;;;4.43;89.58;100528.84;5113323;28;20075;-64
2022/12/09 09:07:39;;;;;;;75.47;39.38;;;4.40;99.90;;;4.38;89.39;100533.13;5113358;28;20081;-65
2022/12/09 09:10:09;;;;;;;70.73;38.97;;;4.40;99.90;;;4.41;89.83;100499.13;5113517;28;20452;-65
2022/12/09 09:12:38;;;;;;;72.97;39.33;;;4.40;99.90;;;4.89;90.28;100525.13;5112970;28;20297;-65
2022/12/09 09:15:12;;;;;;;80.57;41.57;;;4.70;99.90;;;5.07;90.09;100500.88;5113375;28;20412;-65
2022/12/09 09:17:42;;;;;;;78.50;41.33;;;5.00;99.90;;;5.39;90.00;100510.84;5114102;28;20043;-66
2022/12/09 09:20:19;;;;;;;81.47;43.73;;;5.30;99.90;;;5.73;90.08;100511.19;5117036;28;20047;-64
2022/12/09 09:22:48;;;;;;;76.53;42.67;;;5.60;99.90;;;6.07;89.18;100515.88;5117069;28;20047;-65
2022/12/09 09:25:17;;;;;;;71.00;41.58;;;5.90;99.90;;;6.26;88.49;100523.91;5098912;28;20397;-65
2022/12/09 09:27:46;;;;;;;74.70;41.97;;;6.20;99.90;;;6.25;86.57;100522.13;5117100;28;20109;-65
2022/12/09 09:30:16;;;;;;;81.17;43.40;;;6.30;99.90;;;6.01;85.09;100535.09;5117053;28;20036;-65
2022/12/09 09:32:45;;;;;;;82.45;44.92;;;6.10;99.90;;;5.83;84.71;100511.31;5116879;28;20055;-65
2022/12/09 09:35:13;;;;;;;83.33;44.17;;;6.00;99.90;;;6.07;84.64;100540.41;5117231;28;20047;-65
2022/12/09 09:37:42;;;;;;;72.18;42.30;;;6.00;99.90;;;6.02;84.27;100547.34;5116576;28;20113;-65
2022/12/09 09:40:12;;;;;;;71.07;41.97;;;5.90;99.90;;;5.98;83.55;100548.16;5116536;28;20425;-66
2022/12/09 09:42:49;;;;;;;74.35;41.50;;;5.90;99.90;;;5.71;83.14;100529.50;5116640;28;20039;-64
2022/12/09 09:45:23;;;;;;;74.35;42.10;;;5.80;99.90;;;5.81;82.97;100554.09;5116938;28;20047;-66
2022/12/09 09:47:56;;;;;;;68.93;39.53;;;5.80;99.90;;;5.69;83.35;100543.50;5098458;28;20040;-68
2022/12/09 09:50:33;;;;;;;70.57;40.92;;;5.70;99.90;;;5.74;83.05;100558.41;5098700;28;20047;-67
2022/12/09 09:53:15;;;;;;;66.22;39.63;;;5.60;99.90;;;5.65;83.19;100555.72;5116567;28;20044;-67
2022/12/09 09:55:49;;;;;;;62.13;39.53;;;5.60;99.90;;;5.69;83.23;100570.59;5116330;28;20408;-67
2022/12/09 09:58:25;;;;;;;66.00;37.45;;;5.60;99.90;;;5.63;83.68;100562.69;5116491;28;20447;-66
2022/12/09 10:01:03;;;;;;;60.73;37.70;;;5.50;99.90;;;5.66;83.55;100561.81;5116378;28;20411;-65
2022/12/09 10:03:47;;;;;;;62.92;39.60;;;5.50;99.90;;;5.64;83.49;100566.16;5115762;28;20092;-64
2022/12/09 10:06:30;;;;;;;63.58;38.38;;;5.50;99.90;;;4.98;83.75;100456.19;5116018;28;20071;-65
2022/12/09 10:09:05;;;;;;;64.90;38.17;;;5.50;99.90;;;5.40;83.54;100530.09;5115963;28;20047;-62
2022/12/09 10:11:55;;;;;;;64.20;38.07;;;5.60;99.90;;;5.66;83.81;100567.97;5116037;28;20084;-65
2022/12/09 10:14:39;;;;;;;60.25;37.65;;;5.50;99.90;;;5.69;83.73;100565.34;5115497;28;20108;-72
2022/12/09 10:17:23;;;;;;;62.90;38.63;;;5.60;99.90;;;5.65;83.99;100558.34;5115575;28;20114;-65
2022/12/09 10:19:58;;;;;;;60.17;37.87;;;5.60;99.90;;;5.58;83.81;100543.38;5115532;28;20067;-65
2022/12/09 10:22:34;;;;;;;61.23;39.67;;;5.60;99.90;;;5.74;84.20;100558.41;5097969;28;20051;-64
2022/12/09 10:25:17;;;;;;;61.20;40.37;;;5.60;99.90;;;5.74;84.29;100561.03;5116036;28;20074;-64
2022/12/09 10:27:53;;;;;;;63.23;40.00;;;5.60;99.90;;;5.73;84.50;100550.53;5116315;28;20040;-63